CheckWX is a tool to help pilots better visualize weather data.  It is not intended as a substitute for an official pre-flight weather briefing.

02:52:11 UTC

KASW METAR
Warsaw Municipal Airport
Warsaw, Indiana, USA
Current

17 mins ago

KASW 230235Z AUTO 24009G18KT 10SM -RA SCT032 BKN042 OVC070 23/18 A2989 RMK AO2
Observed
Sep-23 @ 02:35 UTC
Wind
  • 240° at 9 KTS
  • Gusting to 18 KTS
Visibility
10 SM
Flight Rules
VFR
Conditions
Light Rain
Cloud Levels
  • Scattered at 3,200' AGL
  • Broken at 4,200' AGL
  • Overcast at 7,000' AGL
Temperature
23°C / 73°F
Dewpoint
18°C / 64°F
Humidity
74%
Altimeter
29.89" Hg
Pressure
1012.22 hPa
Previous

37 mins ago

KASW 230215Z AUTO 24007KT 10SM -RA SCT046 BKN070 OVC110 23/18 A2988 RMK AO2
Observed
Sep-23 @ 02:15 UTC
Wind
  • 240° at 7 KTS
Visibility
10 SM
Flight Rules
VFR
Conditions
Light Rain
Cloud Levels
  • Scattered at 4,600' AGL
  • Broken at 7,000' AGL
  • Overcast at 11,000' AGL
Temperature
23°C / 73°F
Dewpoint
18°C / 64°F
Humidity
74%
Altimeter
29.88" Hg
Pressure
1011.82 hPa
Previous

57 mins ago

KASW 230155Z AUTO 20005KT 10SM -RA BKN048 BKN055 24/17 A2987 RMK AO2
Observed
Sep-23 @ 01:55 UTC
Wind
  • 200° at 5 KTS
Visibility
10 SM
Flight Rules
VFR
Conditions
Light Rain
Cloud Levels
  • Broken at 4,800' AGL
  • Broken at 5,500' AGL
Temperature
24°C / 75°F
Dewpoint
17°C / 63°F
Humidity
65%
Altimeter
29.87" Hg
Pressure
1011.52 hPa